createdAt,value
2017-04-08T00:00:17.007Z,0
2017-04-08T00:01:17.044Z,0
2017-04-08T00:02:17.383Z,0
2017-04-08T00:03:17.355Z,0
2017-04-08T00:04:17.117Z,0
2017-04-08T00:05:17.456Z,0
2017-04-08T00:06:17.489Z,0
2017-04-08T00:07:17.210Z,0
2017-04-08T00:08:17.479Z,0
2017-04-08T00:09:17.259Z,0
2017-04-08T00:10:17.285Z,0
2017-04-08T00:11:17.314Z,0
2017-04-08T00:12:17.343Z,0
2017-04-08T00:13:17.638Z,0
2017-04-08T00:14:17.394Z,0
2017-04-08T00:15:17.723Z,0
2017-04-08T00:16:17.445Z,0
2017-04-08T00:17:17.785Z,0
2017-04-08T00:18:18.063Z,0
2017-04-08T00:19:17.528Z,0
2017-04-08T00:20:17.860Z,0
2017-04-08T00:21:16.949Z,0
2017-04-08T00:22:17.603Z,0
2017-04-08T00:23:17.881Z,0
2017-04-08T00:24:17.975Z,0
2017-04-08T00:25:17.679Z,0
2017-04-08T00:26:17.709Z,0
2017-04-08T00:27:18.052Z,0
2017-04-08T00:28:18.329Z,0
2017-04-08T00:29:17.790Z,0
2017-04-08T00:30:17.810Z,0
2017-04-08T00:31:18.164Z,0
2017-04-08T00:32:17.877Z,0
2017-04-08T00:33:18.153Z,0
2017-04-08T00:34:17.926Z,0
2017-04-08T00:35:18.262Z,0
2017-04-08T00:36:18.299Z,0
2017-04-08T00:37:18.312Z,0
2017-04-08T00:38:18.605Z,0
2017-04-08T00:39:18.374Z,0
2017-04-08T00:40:18.086Z,0
2017-04-08T00:41:18.451Z,0
2017-04-08T00:42:18.453Z,0
2017-04-08T00:43:18.480Z,0
2017-04-08T00:44:18.507Z,0
2017-04-08T00:45:18.530Z,0
2017-04-08T00:46:18.248Z,0
2017-04-08T00:47:18.589Z,0
2017-04-08T00:48:18.608Z,0
2017-04-08T00:49:18.646Z,0
2017-04-08T00:50:18.041Z,0
2017-04-08T00:51:18.386Z,0
2017-04-08T00:52:18.726Z,0
2017-04-08T00:53:18.761Z,0
2017-04-08T00:54:18.772Z,0
2017-04-08T00:55:18.793Z,0
2017-04-08T00:56:18.823Z,0
2017-04-08T00:57:18.859Z,0
2017-04-08T00:58:18.884Z,0
2017-04-08T00:59:18.912Z,0
2017-04-08T01:00:18.609Z,0
2017-04-08T01:01:18.336Z,0
2017-04-08T01:02:18.674Z,0
2017-04-08T01:03:18.710Z,0
2017-04-08T01:04:19.049Z,0
2017-04-08T01:05:19.069Z,0
2017-04-08T01:06:18.153Z,0
2017-04-08T01:07:18.498Z,0
2017-04-08T01:08:18.847Z,0
2017-04-08T01:09:19.173Z,0
2017-04-08T01:10:18.888Z,0
2017-04-08T01:11:18.926Z,0
2017-04-08T01:12:19.245Z,0
2017-04-08T01:13:18.975Z,0
2017-04-08T01:14:18.998Z,0
2017-04-08T01:15:19.024Z,0
2017-04-08T01:16:19.361Z,0
2017-04-08T01:17:18.764Z,0
2017-04-08T01:18:19.418Z,0
2017-04-08T01:19:19.447Z,0
2017-04-08T01:20:18.528Z,0
2017-04-08T01:21:19.496Z,0
2017-04-08T01:22:19.562Z,0
2017-04-08T01:23:19.229Z,0
2017-04-08T01:24:19.519Z,0
2017-04-08T01:25:19.607Z,0
2017-04-08T01:26:19.320Z,0
2017-04-08T01:27:19.032Z,0
2017-04-08T01:28:19.686Z,0
2017-04-08T01:29:19.647Z,0
2017-04-08T01:30:19.744Z,0
2017-04-08T01:31:19.450Z,0
2017-04-08T01:32:19.485Z,0
2017-04-08T01:33:18.877Z,0
2017-04-08T01:34:19.782Z,0
2017-04-08T01:35:19.867Z,0
2017-04-08T01:36:19.588Z,0
2017-04-08T01:37:19.608Z,0
2017-04-08T01:38:19.633Z,0
2017-04-08T01:39:19.911Z,0
2017-04-08T01:40:20.006Z,0
2017-04-08T01:41:20.028Z,0
2017-04-08T01:42:19.741Z,0
2017-04-08T01:43:19.769Z,0
2017-04-08T01:44:20.362Z,0
2017-04-08T01:45:20.129Z,0
2017-04-08T01:46:19.855Z,0
2017-04-08T01:47:20.188Z,0
2017-04-08T01:48:20.207Z,0
2017-04-08T01:49:20.489Z,0
2017-04-08T01:50:19.638Z,0
2017-04-08T01:51:19.982Z,0
2017-04-08T01:52:20.038Z,0
2017-04-08T01:53:19.733Z,0
2017-04-08T01:54:20.326Z,0
2017-04-08T01:55:20.129Z,0
2017-04-08T01:56:19.795Z,0
2017-04-08T01:57:19.825Z,0
2017-04-08T01:58:20.484Z,0
2017-04-08T01:59:20.757Z,0
2017-04-08T02:00:20.213Z,0
2017-04-08T02:01:20.245Z,0
2017-04-08T02:02:20.274Z,0
2017-04-08T02:03:20.304Z,0
2017-04-08T02:04:20.575Z,0
2017-04-08T02:05:20.029Z,0
2017-04-08T02:06:20.389Z,0
2017-04-08T02:07:20.098Z,0
2017-04-08T02:08:20.738Z,0
2017-04-08T02:09:20.712Z,0
2017-04-08T02:10:20.492Z,0
2017-04-08T02:11:20.198Z,0
2017-04-08T02:12:20.538Z,0
2017-04-08T02:13:20.880Z,0
2017-04-08T02:14:21.152Z,0
2017-04-08T02:15:20.610Z,0
2017-04-08T02:16:20.949Z,0
2017-04-08T02:17:20.990Z,0
2017-04-08T02:18:21.010Z,0
2017-04-08T02:19:20.972Z,0
2017-04-08T02:20:20.440Z,0
2017-04-08T02:21:20.765Z,0
2017-04-08T02:22:21.122Z,0
2017-04-08T02:23:20.836Z,0
2017-04-08T02:24:21.415Z,0
2017-04-08T02:25:20.880Z,0
2017-04-08T02:26:20.597Z,0
2017-04-08T02:27:20.941Z,0
2017-04-08T02:28:20.969Z,0
2017-04-08T02:29:21.551Z,0
2017-04-08T02:30:21.016Z,0
2017-04-08T02:31:21.029Z,0
2017-04-08T02:32:21.409Z,0
2017-04-08T02:33:21.402Z,0
2017-04-08T02:34:21.681Z,0
2017-04-08T02:35:21.151Z,0
2017-04-08T02:36:21.171Z,0
2017-04-08T02:37:21.521Z,0
2017-04-08T02:38:21.541Z,0
2017-04-08T02:39:21.566Z,0
2017-04-08T02:40:21.291Z,0
2017-04-08T02:41:21.620Z,0
2017-04-08T02:42:21.325Z,0
2017-04-08T02:43:21.673Z,0
2017-04-08T02:44:21.694Z,0
2017-04-08T02:45:21.721Z,0
2017-04-08T02:46:21.442Z,0
2017-04-08T02:47:21.153Z,0
2017-04-08T02:48:21.801Z,0
2017-04-08T02:49:21.515Z,0
2017-04-08T02:50:21.858Z,0
2017-04-08T02:51:21.256Z,0
2017-04-08T02:52:21.903Z,0
2017-04-08T02:53:21.616Z,0
2017-04-08T02:54:21.652Z,0
2017-04-08T02:55:21.991Z,0
2017-04-08T02:56:22.007Z,0
2017-04-08T02:57:21.420Z,0
2017-04-08T02:58:21.442Z,0
2017-04-08T02:59:21.772Z,0
2017-04-08T03:00:22.121Z,0
2017-04-08T03:01:21.834Z,0
2017-04-08T03:02:22.187Z,0
2017-04-08T03:03:22.196Z,0
2017-04-08T03:04:21.910Z,0
2017-04-08T03:05:21.629Z,0
2017-04-08T03:06:22.279Z,0
2017-04-08T03:07:22.309Z,0
2017-04-08T03:08:22.020Z,0
2017-04-08T03:09:22.040Z,0
2017-04-08T03:10:22.386Z,0
2017-04-08T03:11:22.095Z,0
2017-04-08T03:12:22.451Z,0
2017-04-08T03:13:22.463Z,0
2017-04-08T03:14:22.484Z,0
2017-04-08T03:15:22.517Z,0
2017-04-08T03:16:22.547Z,0
2017-04-08T03:17:22.267Z,0
2017-04-08T03:18:22.286Z,0
2017-04-08T03:19:22.308Z,0
2017-04-08T03:20:22.593Z,0
2017-04-08T03:21:22.367Z,0
2017-04-08T03:22:22.386Z,0
2017-04-08T03:23:22.423Z,0
2017-04-08T03:24:22.448Z,0
2017-04-08T03:25:22.720Z,0
2017-04-08T03:26:22.497Z,0
2017-04-08T03:27:22.525Z,0
2017-04-08T03:28:22.545Z,0
2017-04-08T03:29:22.891Z,0
2017-04-08T03:30:22.540Z,0
2017-04-08T03:31:22.628Z,0
2017-04-08T03:32:22.677Z,0
2017-04-08T03:33:22.677Z,0
2017-04-08T03:34:22.706Z,0
2017-04-08T03:35:23.296Z,0
2017-04-08T03:36:23.068Z,0
2017-04-08T03:37:22.780Z,0
2017-04-08T03:38:22.841Z,0
2017-04-08T03:39:23.150Z,0
2017-04-08T03:40:23.118Z,0
2017-04-08T03:41:23.209Z,0
2017-04-08T03:42:23.229Z,0
2017-04-08T03:43:23.253Z,0
2017-04-08T03:44:23.279Z,0
2017-04-08T03:45:23.555Z,0
2017-04-08T03:46:22.712Z,0
2017-04-08T03:47:22.736Z,0
2017-04-08T03:48:23.386Z,0
2017-04-08T03:49:23.415Z,0
2017-04-08T03:50:23.687Z,0
2017-04-08T03:51:23.469Z,0
2017-04-08T03:52:23.492Z,0
2017-04-08T03:53:23.554Z,0
2017-04-08T03:54:22.926Z,0
2017-04-08T03:55:23.511Z,0
2017-04-08T03:56:23.596Z,0
2017-04-08T03:57:23.628Z,0
2017-04-08T03:58:23.345Z,0
2017-04-08T03:59:23.363Z,0
2017-04-08T04:00:23.318Z,0
2017-04-08T04:01:23.415Z,0
2017-04-08T04:02:23.446Z,0
2017-04-08T04:03:23.465Z,0
2017-04-08T04:04:23.496Z,0
2017-04-08T04:05:23.821Z,0
2017-04-08T04:06:23.863Z,0
2017-04-08T04:07:23.572Z,0
2017-04-08T04:08:23.915Z,0
2017-04-08T04:09:23.632Z,0
2017-04-08T04:10:24.211Z,0
2017-04-08T04:11:23.982Z,0
2017-04-08T04:12:24.015Z,0
2017-04-08T04:13:23.424Z,0
2017-04-08T04:14:24.068Z,0
2017-04-08T04:15:24.349Z,0
2017-04-08T04:16:24.113Z,0
2017-04-08T04:17:23.830Z,0
2017-04-08T04:18:23.543Z,0
2017-04-08T04:19:24.196Z,0
2017-04-08T04:20:24.212Z,0
2017-04-08T04:21:23.941Z,0
2017-04-08T04:22:23.967Z,0
2017-04-08T04:23:23.990Z,0
2017-04-08T04:24:24.332Z,0
2017-04-08T04:25:24.295Z,0
2017-04-08T04:26:24.377Z,0
2017-04-08T04:27:24.410Z,0
2017-04-08T04:28:24.120Z,0
2017-04-08T04:29:24.479Z,0
2017-04-08T04:30:24.455Z,0
2017-04-08T04:31:24.208Z,0
2017-04-08T04:32:23.602Z,0
2017-04-08T04:33:24.563Z,0
2017-04-08T04:34:24.288Z,0
2017-04-08T04:35:24.559Z,4
2017-04-08T04:36:24.649Z,4
2017-04-08T04:37:24.361Z,0
2017-04-08T04:38:24.697Z,4
2017-04-08T04:39:24.711Z,8
2017-04-08T04:40:25.002Z,4
2017-04-08T04:41:24.463Z,8
2017-04-08T04:42:24.189Z,8
2017-04-08T04:43:24.829Z,8
2017-04-08T04:44:24.547Z,12
2017-04-08T04:45:25.134Z,16
2017-04-08T04:46:24.600Z,16
2017-04-08T04:47:24.308Z,20
2017-04-08T04:48:24.961Z,20
2017-04-08T04:49:24.675Z,24
2017-04-08T04:50:25.254Z,28
2017-04-08T04:51:24.410Z,28
2017-04-08T04:52:24.752Z,32
2017-04-08T04:53:24.784Z,40
2017-04-08T04:54:25.114Z,40
2017-04-08T04:55:25.077Z,48
2017-04-08T04:56:24.859Z,48
2017-04-08T04:57:25.196Z,56
2017-04-08T04:58:24.597Z,60
2017-04-08T04:59:24.630Z,68
2017-04-08T05:00:24.644Z,72
2017-04-08T05:01:24.671Z,76
2017-04-08T05:02:25.010Z,84
2017-04-08T05:03:25.355Z,92
2017-04-08T05:04:25.374Z,100
2017-04-08T05:05:25.406Z,108
2017-04-08T05:06:25.122Z,108
2017-04-08T05:07:25.496Z,116
2017-04-08T05:08:25.483Z,124
2017-04-08T05:09:25.192Z,132
2017-04-08T05:10:25.220Z,136
2017-04-08T05:11:25.814Z,144
2017-04-08T05:12:25.586Z,156
2017-04-08T05:13:24.991Z,160
2017-04-08T05:14:25.359Z,168
2017-04-08T05:15:25.665Z,172
2017-04-08T05:16:25.361Z,180
2017-04-08T05:17:25.715Z,192
2017-04-08T05:18:25.115Z,200
2017-04-08T05:19:25.768Z,208
2017-04-08T05:20:25.792Z,216
2017-04-08T05:21:25.752Z,224
2017-04-08T05:22:25.529Z,232
2017-04-08T05:23:25.874Z,240
2017-04-08T05:24:25.904Z,248
2017-04-08T05:25:25.924Z,256
2017-04-08T05:26:26.204Z,260
2017-04-08T05:27:25.360Z,268
2017-04-08T05:28:26.006Z,276
2017-04-08T05:29:26.035Z,284
2017-04-08T05:30:26.060Z,296
2017-04-08T05:31:26.328Z,304
2017-04-08T05:32:26.116Z,312
2017-04-08T05:33:25.812Z,320
2017-04-08T05:34:25.830Z,332
2017-04-08T05:35:26.190Z,340
2017-04-08T05:36:26.143Z,348
2017-04-08T05:37:25.612Z,356
2017-04-08T05:38:26.270Z,364
2017-04-08T05:39:25.964Z,372
2017-04-08T05:40:26.351Z,380
2017-04-08T05:41:26.591Z,388
2017-04-08T05:42:25.742Z,392
2017-04-08T05:43:26.392Z,400
2017-04-08T05:44:26.414Z,408
2017-04-08T05:45:26.442Z,416
2017-04-08T05:46:26.719Z,424
2017-04-08T05:47:26.500Z,428
2017-04-08T05:48:26.517Z,436
2017-04-08T05:49:25.922Z,444
2017-04-08T05:50:26.266Z,448
2017-04-08T05:51:26.855Z,456
2017-04-08T05:52:26.009Z,460
2017-04-08T05:53:26.653Z,468
2017-04-08T05:54:26.673Z,476
2017-04-08T05:55:26.702Z,484
2017-04-08T05:56:27.030Z,492
2017-04-08T05:57:26.754Z,496
2017-04-08T05:58:26.776Z,508
2017-04-08T05:59:26.500Z,516
2017-04-08T06:00:26.525Z,524
2017-04-08T06:01:26.490Z,532
2017-04-08T06:02:26.887Z,540
2017-04-08T06:03:26.607Z,548
2017-04-08T06:04:26.630Z,552
2017-04-08T06:05:26.970Z,560
2017-04-08T06:06:26.922Z,568
2017-04-08T06:07:26.702Z,576
2017-04-08T06:08:27.052Z,580
2017-04-08T06:09:26.756Z,588
2017-04-08T06:10:26.812Z,596
2017-04-08T06:11:27.368Z,604
2017-04-08T06:12:26.834Z,608
2017-04-08T06:13:27.172Z,612
2017-04-08T06:14:26.905Z,616
2017-04-08T06:15:27.230Z,620
2017-04-08T06:16:27.503Z,628
2017-04-08T06:17:27.278Z,632
2017-04-08T06:18:26.999Z,640
2017-04-08T06:19:27.020Z,648
2017-04-08T06:20:27.049Z,656
2017-04-08T06:21:27.641Z,664
2017-04-08T06:22:27.407Z,676
2017-04-08T06:23:27.438Z,676
2017-04-08T06:24:27.159Z,680
2017-04-08T06:25:27.171Z,680
2017-04-08T06:26:27.456Z,680
2017-04-08T06:27:27.225Z,688
2017-04-08T06:28:27.253Z,696
2017-04-08T06:29:27.594Z,708
2017-04-08T06:30:27.316Z,716
2017-04-08T06:31:27.908Z,724
2017-04-08T06:32:27.674Z,732
2017-04-08T06:33:27.060Z,740
2017-04-08T06:34:27.726Z,744
2017-04-08T06:35:27.434Z,748
2017-04-08T06:36:28.027Z,748
2017-04-08T06:37:27.484Z,752
2017-04-08T06:38:27.504Z,764
2017-04-08T06:39:27.544Z,772
2017-04-08T06:40:27.874Z,780
2017-04-08T06:41:28.155Z,792
2017-04-08T06:42:27.611Z,796
2017-04-08T06:43:27.643Z,800
2017-04-08T06:44:27.693Z,804
2017-04-08T06:45:28.007Z,808
2017-04-08T06:46:28.286Z,788
2017-04-08T06:47:28.060Z,820
2017-04-08T06:48:27.780Z,812
2017-04-08T06:49:27.802Z,828
2017-04-08T06:50:28.138Z,840
2017-04-08T06:51:28.153Z,844
2017-04-08T06:52:28.192Z,852
2017-04-08T06:53:28.217Z,856
2017-04-08T06:54:28.241Z,860
2017-04-08T06:55:28.265Z,860
2017-04-08T06:56:28.238Z,868
2017-04-08T06:57:28.015Z,868
2017-04-08T06:58:28.356Z,876
2017-04-08T06:59:28.404Z,880
2017-04-08T07:00:28.398Z,884
2017-04-08T07:01:28.370Z,884
2017-04-08T07:02:27.516Z,884
2017-04-08T07:03:28.500Z,884
2017-04-08T07:04:28.193Z,888
2017-04-08T07:05:28.526Z,896
2017-04-08T07:06:28.810Z,900
2017-04-08T07:07:28.270Z,904
2017-04-08T07:08:28.299Z,908
2017-04-08T07:09:28.328Z,916
2017-04-08T07:10:28.348Z,920
2017-04-08T07:11:28.684Z,924
2017-04-08T07:12:28.406Z,928
2017-04-08T07:13:28.427Z,936
2017-04-08T07:14:28.763Z,944
2017-04-08T07:15:28.790Z,948
2017-04-08T07:16:28.189Z,948
2017-04-08T07:17:29.139Z,956
2017-04-08T07:18:28.870Z,960
2017-04-08T07:19:28.582Z,964
2017-04-08T07:20:28.613Z,972
2017-04-08T07:21:28.317Z,980
2017-04-08T07:22:29.234Z,984
2017-04-08T07:23:28.693Z,988
2017-04-08T07:24:28.712Z,988
2017-04-08T07:25:28.748Z,992
2017-04-08T07:26:29.073Z,1000
2017-04-08T07:27:29.038Z,1012
2017-04-08T07:28:29.131Z,1020
2017-04-08T07:29:29.160Z,1028
2017-04-08T07:30:28.871Z,1032
2017-04-08T07:31:29.234Z,1036
2017-04-08T07:32:29.165Z,1036
2017-04-08T07:33:29.262Z,1040
2017-04-08T07:34:28.986Z,1048
2017-04-08T07:35:28.999Z,1060
2017-04-08T07:36:29.032Z,1072
2017-04-08T07:37:29.665Z,1080
2017-04-08T07:38:29.077Z,1084
2017-04-08T07:39:28.799Z,1084
2017-04-08T07:40:29.445Z,1084
2017-04-08T07:41:28.855Z,1088
2017-04-08T07:42:29.748Z,1100
2017-04-08T07:43:29.526Z,1112
2017-04-08T07:44:29.254Z,1120
2017-04-08T07:45:29.279Z,1124
2017-04-08T07:46:29.295Z,1128
2017-04-08T07:47:29.881Z,1132
2017-04-08T07:48:29.653Z,1132
2017-04-08T07:49:29.374Z,1140
2017-04-08T07:50:29.087Z,1156
2017-04-08T07:51:29.731Z,1168
2017-04-08T07:52:29.384Z,1180
2017-04-08T07:53:29.784Z,1180
2017-04-08T07:54:29.813Z,1180
2017-04-08T07:55:29.835Z,1176
2017-04-08T07:56:29.554Z,1180
2017-04-08T07:57:29.819Z,1188
2017-04-08T07:58:29.605Z,1200
2017-04-08T07:59:29.673Z,1216
2017-04-08T08:00:29.958Z,1228
2017-04-08T08:01:29.694Z,1232
2017-04-08T08:02:29.407Z,1224
2017-04-08T08:03:30.044Z,1224
2017-04-08T08:04:29.776Z,1224
2017-04-08T08:05:29.790Z,1236
2017-04-08T08:06:30.126Z,1252
2017-04-08T08:07:30.154Z,1256
2017-04-08T08:08:30.180Z,1264
2017-04-08T08:09:30.209Z,1260
2017-04-08T08:10:29.925Z,1252
2017-04-08T08:11:29.942Z,1256
2017-04-08T08:12:29.663Z,1260
2017-04-08T08:13:30.562Z,1268
2017-04-08T08:14:30.035Z,1280
2017-04-08T08:15:29.746Z,1288
2017-04-08T08:16:30.384Z,1296
2017-04-08T08:17:30.414Z,1296
2017-04-08T08:18:30.369Z,1292
2017-04-08T08:19:30.465Z,1296
2017-04-08T08:20:30.179Z,1300
2017-04-08T08:21:30.518Z,1312
2017-04-08T08:22:30.238Z,1324
2017-04-08T08:23:30.822Z,1340
2017-04-08T08:24:30.600Z,1344
2017-04-08T08:25:30.623Z,1348
2017-04-08T08:26:30.649Z,1348
2017-04-08T08:27:30.370Z,1352
2017-04-08T08:28:30.653Z,1352
2017-04-08T08:29:30.731Z,1356
2017-04-08T08:30:30.759Z,1364
2017-04-08T08:31:30.780Z,1376
2017-04-08T08:32:30.804Z,1384
2017-04-08T08:33:31.090Z,1392
2017-04-08T08:34:30.227Z,1396
2017-04-08T08:35:30.580Z,1400
2017-04-08T08:36:30.608Z,1396
2017-04-08T08:37:30.637Z,1396
2017-04-08T08:38:31.269Z,1400
2017-04-08T08:39:30.370Z,1404
2017-04-08T08:40:31.028Z,1412
2017-04-08T08:41:31.045Z,1428
2017-04-08T08:42:30.762Z,1436
2017-04-08T08:43:31.353Z,1444
2017-04-08T08:44:30.809Z,1448
2017-04-08T08:45:31.158Z,1444
2017-04-08T08:46:31.182Z,1448
2017-04-08T08:47:30.580Z,1456
2017-04-08T08:48:31.477Z,1472
2017-04-08T08:49:30.958Z,1492
2017-04-08T08:50:31.282Z,1508
2017-04-08T08:51:31.303Z,1516
2017-04-08T08:52:31.348Z,1512
2017-04-08T08:53:31.308Z,1508
2017-04-08T08:54:31.078Z,1508
2017-04-08T08:55:31.106Z,1512
2017-04-08T08:56:31.448Z,1532
2017-04-08T08:57:31.153Z,1548
2017-04-08T08:58:31.436Z,1568
2017-04-08T08:59:31.528Z,1576
2017-04-08T09:00:31.233Z,1580
2017-04-08T09:01:31.579Z,1580
2017-04-08T09:02:31.291Z,1580
2017-04-08T09:03:31.559Z,1588
2017-04-08T09:04:31.345Z,1608
2017-04-08T09:05:31.054Z,1632
2017-04-08T09:06:31.710Z,1648
2017-04-08T09:07:31.730Z,1656
2017-04-08T09:08:31.703Z,1656
2017-04-08T09:09:31.793Z,1660
2017-04-08T09:10:31.825Z,1664
2017-04-08T09:11:31.541Z,1680
2017-04-08T09:12:31.554Z,1712
2017-04-08T09:13:32.138Z,1744
2017-04-08T09:14:31.612Z,1768
2017-04-08T09:15:31.645Z,1776
2017-04-08T09:16:31.661Z,1776
2017-04-08T09:17:31.366Z,1780
2017-04-08T09:18:31.962Z,1788
2017-04-08T09:19:31.744Z,1800
2017-04-08T09:20:32.080Z,1824
2017-04-08T09:21:32.104Z,1852
2017-04-08T09:22:31.824Z,1872
2017-04-08T09:23:32.099Z,1884
2017-04-08T09:24:32.175Z,1880
2017-04-08T09:25:31.904Z,1880
2017-04-08T09:26:31.924Z,1884
2017-04-08T09:27:32.271Z,1892
2017-04-08T09:28:32.227Z,1912
2017-04-08T09:29:32.319Z,1936
2017-04-08T09:30:32.352Z,1964
2017-04-08T09:31:32.367Z,1980
2017-04-08T09:32:32.404Z,1992
2017-04-08T09:33:32.677Z,1992
2017-04-08T09:34:32.147Z,2008
2017-04-08T09:35:32.168Z,2020
2017-04-08T09:36:32.507Z,2032
2017-04-08T09:37:32.536Z,2044
2017-04-08T09:38:32.493Z,2052
2017-04-08T09:39:32.281Z,2060
2017-04-08T09:40:32.606Z,2060
2017-04-08T09:41:32.326Z,2072
2017-04-08T09:42:32.359Z,2084
2017-04-08T09:43:32.945Z,2104
2017-04-08T09:44:32.721Z,2128
2017-04-08T09:45:32.426Z,2144
2017-04-08T09:46:32.464Z,2148
2017-04-08T09:47:32.792Z,2160
2017-04-08T09:48:33.081Z,2184
2017-04-08T09:49:32.857Z,2204
2017-04-08T09:50:32.565Z,2228
2017-04-08T09:51:32.907Z,2260
2017-04-08T09:52:32.626Z,2284
2017-04-08T09:53:32.901Z,2300
2017-04-08T09:54:32.990Z,2320
2017-04-08T09:55:32.698Z,2336
2017-04-08T09:56:32.730Z,2344
2017-04-08T09:57:33.071Z,2360
2017-04-08T09:58:33.043Z,2380
2017-04-08T09:59:33.121Z,2412
2017-04-08T10:00:32.837Z,2452
2017-04-08T10:01:33.166Z,2460
2017-04-08T10:02:33.202Z,2464
2017-04-08T10:03:33.478Z,2476
2017-04-08T10:04:32.644Z,2492
2017-04-08T10:05:32.970Z,2512
2017-04-08T10:06:33.313Z,2520
2017-04-08T10:07:33.339Z,2540
2017-04-08T10:08:33.307Z,2564
2017-04-08T10:09:33.081Z,2608
2017-04-08T10:10:33.415Z,2644
2017-04-08T10:11:33.117Z,2672
2017-04-08T10:12:33.466Z,2716
2017-04-08T10:13:33.432Z,2748
2017-04-08T10:14:32.895Z,2796
2017-04-08T10:15:33.571Z,2840
2017-04-08T10:16:32.950Z,2888
2017-04-08T10:17:33.597Z,2920
2017-04-08T10:18:33.566Z,2964
2017-04-08T10:19:33.662Z,2996
2017-04-08T10:20:33.369Z,3016
2017-04-08T10:21:33.718Z,3060
2017-04-08T10:22:33.781Z,3108
2017-04-08T10:23:33.706Z,3152
2017-04-08T10:24:33.805Z,3176
2017-04-08T10:25:33.819Z,3216
2017-04-08T10:26:33.850Z,3268
2017-04-08T10:27:33.873Z,3312
2017-04-08T10:28:34.206Z,3356
2017-04-08T10:29:33.623Z,3384
2017-04-08T10:30:33.333Z,3408
2017-04-08T10:31:33.681Z,3440
2017-04-08T10:32:33.696Z,3488
2017-04-08T10:33:33.754Z,3516
2017-04-08T10:34:33.750Z,3544
2017-04-08T10:35:34.096Z,3584
2017-04-08T10:36:33.809Z,3636
2017-04-08T10:37:33.838Z,3684
2017-04-08T10:38:33.865Z,3724
2017-04-08T10:39:34.205Z,3740
2017-04-08T10:40:33.921Z,3760
2017-04-08T10:41:34.268Z,3764
2017-04-08T10:42:33.963Z,3760
2017-04-08T10:43:34.004Z,3824
2017-04-08T10:44:34.027Z,3896
2017-04-08T10:45:34.367Z,3936
2017-04-08T10:46:33.459Z,3944
2017-04-08T10:47:34.417Z,3956
2017-04-08T10:48:34.449Z,3996
2017-04-08T10:49:34.498Z,4004
2017-04-08T10:50:33.564Z,4000
2017-04-08T10:51:34.239Z,4016
2017-04-08T10:52:34.244Z,4048
2017-04-08T10:53:34.284Z,4076
2017-04-08T10:54:34.585Z,4092
2017-04-08T10:55:34.638Z,4124
2017-04-08T10:56:34.671Z,4124
2017-04-08T10:57:34.695Z,4164
2017-04-08T10:58:34.097Z,4176
2017-04-08T10:59:34.998Z,4224
2017-04-08T11:00:34.162Z,4264
2017-04-08T11:01:34.806Z,4312
2017-04-08T11:02:34.210Z,4364
2017-04-08T11:03:34.552Z,4416
2017-04-08T11:04:35.141Z,4468
2017-04-08T11:05:34.917Z,4524
2017-04-08T11:06:34.638Z,4616
2017-04-08T11:07:34.658Z,4680
2017-04-08T11:08:34.998Z,4784
2017-04-08T11:09:35.280Z,5016
2017-04-08T11:10:34.114Z,5304
2017-04-08T11:11:34.450Z,5428
2017-04-08T11:12:35.113Z,5484
2017-04-08T11:13:34.523Z,5596
2017-04-08T11:14:35.759Z,5756
2017-04-08T11:15:35.200Z,5916
2017-04-08T11:16:34.276Z,5992
2017-04-08T11:17:35.237Z,6060
2017-04-08T11:18:35.276Z,6044
2017-04-08T11:19:35.556Z,6084
2017-04-08T11:20:35.072Z,6212
2017-04-08T11:21:35.050Z,6280
2017-04-08T11:22:35.071Z,6364
2017-04-08T11:23:35.108Z,6416
2017-04-08T11:24:35.747Z,6472
2017-04-08T11:25:35.468Z,6488
2017-04-08T11:26:35.233Z,6504
2017-04-08T11:27:35.521Z,6560
2017-04-08T11:28:35.571Z,6568
2017-04-08T11:29:35.835Z,6668
2017-04-08T11:30:35.611Z,6692
2017-04-08T11:31:35.007Z,6708
2017-04-08T11:32:35.660Z,6772
2017-04-08T11:33:35.382Z,6796
2017-04-08T11:34:35.979Z,6844
2017-04-08T11:35:35.783Z,6884
2017-04-08T11:36:35.771Z,6964
2017-04-08T11:37:35.805Z,7048
2017-04-08T11:38:35.518Z,7140
2017-04-08T11:39:36.111Z,7236
2017-04-08T11:40:35.576Z,7336
2017-04-08T11:41:35.612Z,7428
2017-04-08T11:42:35.628Z,7520
2017-04-08T11:43:35.361Z,7672
2017-04-08T11:44:35.938Z,7800
2017-04-08T11:45:36.021Z,7988
2017-04-08T11:46:36.055Z,8244
2017-04-08T11:47:36.084Z,8600
2017-04-08T11:48:36.104Z,9120
2017-04-08T11:49:36.082Z,10444
2017-04-08T11:50:35.538Z,12620
2017-04-08T11:51:36.196Z,15236
2017-04-08T11:52:36.219Z,18336
2017-04-08T11:53:35.932Z,20704
2017-04-08T11:54:36.211Z,21856
2017-04-08T11:55:35.995Z,22656
2017-04-08T11:56:36.335Z,24288
2017-04-08T11:57:36.054Z,25216
2017-04-08T11:58:35.769Z,24736
2017-04-08T11:59:36.673Z,24224
2017-04-08T12:00:36.455Z,25248
2017-04-08T12:01:36.167Z,25760
2017-04-08T12:02:36.516Z,26880
2017-04-08T12:03:36.237Z,28224
2017-04-08T12:04:36.878Z,29504
2017-04-08T12:05:36.294Z,30624
2017-04-08T12:06:36.640Z,31328
2017-04-08T12:07:36.669Z,30432
2017-04-08T12:08:36.696Z,29696
2017-04-08T12:09:36.665Z,30432
2017-04-08T12:10:36.126Z,31040
2017-04-08T12:11:36.166Z,31488
2017-04-08T12:12:36.831Z,32928
2017-04-08T12:13:36.220Z,34656
2017-04-08T12:14:37.124Z,37312
2017-04-08T12:15:36.906Z,39392
2017-04-08T12:16:36.933Z,40576
2017-04-08T12:17:36.966Z,41056
2017-04-08T12:18:37.000Z,40608
2017-04-08T12:19:37.276Z,42688
2017-04-08T12:20:36.745Z,43136
2017-04-08T12:21:36.478Z,43776
2017-04-08T12:22:36.811Z,46240
2017-04-08T12:23:37.143Z,48384
2017-04-08T12:24:37.435Z,49408
2017-04-08T12:25:36.908Z,48000
2017-04-08T12:26:36.929Z,48992
2017-04-08T12:27:37.270Z,51168
2017-04-08T12:28:37.310Z,51648
2017-04-08T12:29:37.591Z,51584
2017-04-08T12:30:37.056Z,52992
2017-04-08T12:31:37.089Z,54656
2017-04-08T12:32:37.443Z,56192
2017-04-08T12:33:37.164Z,57728
2017-04-08T12:34:37.439Z,58304
2017-04-08T12:35:37.569Z,56832
2017-04-08T12:36:37.561Z,58048
2017-04-08T12:37:37.286Z,59232
2017-04-08T12:38:37.627Z,61120
2017-04-08T12:39:37.288Z,64608
2017-04-08T12:40:37.061Z,65088
2017-04-08T12:41:37.724Z,60064
2017-04-08T12:42:37.757Z,52064
2017-04-08T12:43:37.781Z,45984
2017-04-08T12:44:38.059Z,47328
2017-04-08T12:45:37.844Z,47872
2017-04-08T12:46:37.564Z,43008
2017-04-08T12:47:37.593Z,38848
2017-04-08T12:48:37.933Z,37760
2017-04-08T12:49:38.226Z,37376
2017-04-08T12:50:38.006Z,37888
2017-04-08T12:51:38.035Z,38240
2017-04-08T12:52:38.065Z,37376
2017-04-08T12:53:37.790Z,36448
2017-04-08T12:54:37.822Z,36768
2017-04-08T12:55:37.564Z,37888
2017-04-08T12:56:38.197Z,39008
2017-04-08T12:57:37.912Z,39616
2017-04-08T12:58:38.265Z,38944
2017-04-08T12:59:38.289Z,36640
2017-04-08T13:00:38.010Z,35008
2017-04-08T13:01:38.041Z,33728
2017-04-08T13:02:38.400Z,31872
2017-04-08T13:03:38.438Z,31744
2017-04-08T13:04:38.143Z,33216
2017-04-08T13:05:38.482Z,33792
2017-04-08T13:06:38.515Z,34752
2017-04-08T13:07:38.245Z,36992
2017-04-08T13:08:38.572Z,38400
2017-04-08T13:09:38.297Z,38400
2017-04-08T13:10:38.899Z,36896
2017-04-08T13:11:38.367Z,35008
2017-04-08T13:12:38.112Z,34016
2017-04-08T13:13:38.428Z,36832
2017-04-08T13:14:38.462Z,38976
2017-04-08T13:15:39.059Z,38336
2017-04-08T13:16:38.526Z,36544
2017-04-08T13:17:38.557Z,37792
2017-04-08T13:18:38.908Z,39808
2017-04-08T13:19:38.946Z,38272
2017-04-08T13:20:39.219Z,36096
2017-04-08T13:21:39.002Z,33952
2017-04-08T13:22:39.039Z,32800
2017-04-08T13:23:39.084Z,33376
2017-04-08T13:24:39.097Z,33824
2017-04-08T13:25:39.378Z,33760
2017-04-08T13:26:38.847Z,33440
2017-04-08T13:27:39.212Z,33344
2017-04-08T13:28:38.608Z,32992
2017-04-08T13:29:39.253Z,32800
2017-04-08T13:30:39.542Z,32736
2017-04-08T13:31:39.320Z,33152
2017-04-08T13:32:39.348Z,33888
2017-04-08T13:33:39.384Z,35840
2017-04-08T13:34:39.422Z,36992
2017-04-08T13:35:39.083Z,35968
2017-04-08T13:36:39.167Z,35520
2017-04-08T13:37:39.518Z,37472
2017-04-08T13:38:39.232Z,38368
2017-04-08T13:39:39.572Z,40416
2017-04-08T13:40:39.861Z,46048
2017-04-08T13:41:39.638Z,52832
2017-04-08T13:42:39.056Z,57792
2017-04-08T13:43:39.711Z,62272
2017-04-08T13:44:39.426Z,63200
2017-04-08T13:45:39.708Z,59328
2017-04-08T13:46:39.490Z,55200
2017-04-08T13:47:39.841Z,52800
2017-04-08T13:48:39.872Z,51936